Aberdeen Gardens, Washington
Current Conditions -  °F | °C
As of 6:00 AM on Saturday 20 Dec 2014 (Local Time) from KHQM Reporting Station
Light Rain Light Rain  
Wind Chill: 41°   Ceiling: 1200
Heat Index: 47°   Visibility: 3mi
Dew Point: 45°   Wind: 13mph
Humidity: 93%   Direction: 70°ENE
Pressure: 29.56"   Gusts: NA
Location:  47.1445°N, 123.771°W
Report Text: KHQM 201400Z AUTO 07011KT 3SM -RA BR BKN012 OVC019 08/07 A2956 RMK AO2 P0000 T00830072
Loading
Personal Weather Stations






























Interactive Weather Map New forecast layout! Learn more

10-Day Weather Forecast

Advertisements
Track Severe Weather on mobile